createdAt,value
2017-12-30T00:01:55.900Z,8.73
2017-12-30T00:04:24.737Z,9.17
2017-12-30T00:06:53.574Z,9.40
2017-12-30T00:09:23.211Z,8.20
2017-12-30T00:11:54.114Z,9.60
2017-12-30T00:14:22.963Z,8.40
2017-12-30T00:16:51.794Z,9.73
2017-12-30T00:19:20.650Z,8.33
2017-12-30T00:21:49.505Z,8.77
2017-12-30T00:24:19.133Z,8.17
2017-12-30T00:26:47.985Z,8.40
2017-12-30T00:29:16.818Z,7.70
2017-12-30T00:31:45.666Z,8.00
2017-12-30T00:34:14.503Z,7.33
2017-12-30T00:36:43.690Z,6.37
2017-12-30T00:39:13.273Z,6.60
2017-12-30T00:41:42.906Z,6.10
2017-12-30T00:44:11.713Z,7.07
2017-12-30T00:46:40.551Z,5.27
2017-12-30T00:49:09.379Z,4.90
2017-12-30T00:51:38.218Z,5.00
2017-12-30T00:54:07.076Z,5.20
2017-12-30T00:56:35.929Z,4.00
2017-12-30T00:59:06.367Z,4.00
2017-12-30T01:01:35.174Z,4.30
2017-12-30T01:04:04.089Z,3.70
2017-12-30T01:06:32.902Z,3.93
2017-12-30T01:09:02.513Z,5.50
2017-12-30T01:11:32.127Z,3.53
2017-12-30T01:14:00.963Z,3.30
2017-12-30T01:16:30.018Z,3.33
2017-12-30T01:18:58.862Z,4.20
2017-12-30T01:21:27.707Z,4.00
2017-12-30T01:23:56.534Z,3.23
2017-12-30T01:26:26.301Z,4.30
2017-12-30T01:28:55.118Z,3.70
2017-12-30T01:31:24.724Z,2.90
2017-12-30T01:33:54.326Z,3.40
2017-12-30T01:36:23.943Z,2.73
2017-12-30T01:38:52.921Z,3.50
2017-12-30T01:41:22.538Z,3.00
2017-12-30T01:43:52.138Z,2.87
2017-12-30T01:46:21.753Z,3.47
2017-12-30T01:49:02.589Z,3.03
2017-12-30T01:51:31.439Z,3.47
2017-12-30T01:54:01.043Z,3.13
2017-12-30T01:56:29.881Z,3.80
2017-12-30T01:58:58.713Z,4.00
2017-12-30T02:01:27.553Z,3.80
2017-12-30T02:03:56.378Z,3.57
2017-12-30T02:06:25.256Z,3.80
2017-12-30T02:08:54.072Z,4.50
2017-12-30T02:11:22.923Z,3.57
2017-12-30T02:13:51.750Z,3.33
2017-12-30T02:16:20.627Z,3.50
2017-12-30T02:18:49.470Z,3.87
2017-12-30T02:21:18.306Z,3.80
2017-12-30T02:23:47.170Z,4.00
2017-12-30T02:26:17.593Z,3.50
2017-12-30T02:28:47.202Z,3.83
2017-12-30T02:31:16.789Z,3.40
2017-12-30T02:33:46.209Z,2.83
2017-12-30T02:36:15.818Z,3.47
2017-12-30T02:38:45.434Z,3.40
2017-12-30T02:41:15.458Z,4.07
2017-12-30T02:43:44.340Z,3.00
2017-12-30T02:46:13.925Z,4.00
2017-12-30T02:48:42.754Z,3.60
2017-12-30T02:51:11.710Z,4.20
2017-12-30T02:53:40.555Z,4.60
2017-12-30T02:56:09.403Z,3.60
2017-12-30T02:58:39.001Z,3.73
2017-12-30T03:01:08.687Z,4.13
2017-12-30T03:03:37.459Z,3.73
2017-12-30T03:06:06.303Z,3.37
2017-12-30T03:08:35.889Z,3.80
2017-12-30T03:11:04.759Z,3.50
2017-12-30T03:13:33.582Z,4.20
2017-12-30T03:16:02.431Z,3.37
2017-12-30T03:18:32.051Z,3.60
2017-12-30T03:21:00.864Z,3.63
2017-12-30T03:23:29.694Z,4.20
2017-12-30T03:25:59.716Z,3.67
2017-12-30T03:28:29.330Z,5.73
2017-12-30T03:31:00.098Z,3.83
2017-12-30T03:33:29.077Z,3.67
2017-12-30T03:35:57.885Z,5.07
2017-12-30T03:38:26.868Z,4.70
2017-12-30T03:40:55.705Z,3.57
2017-12-30T03:43:24.518Z,3.90
2017-12-30T03:45:54.119Z,3.63
2017-12-30T03:48:23.745Z,4.27
2017-12-30T03:50:52.591Z,3.97
2017-12-30T03:53:21.431Z,4.30
2017-12-30T03:55:50.261Z,3.90
2017-12-30T03:58:19.098Z,4.17
2017-12-30T04:00:47.915Z,4.20
2017-12-30T04:03:16.734Z,4.40
2017-12-30T04:05:45.573Z,3.53
2017-12-30T04:08:14.439Z,4.80
2017-12-30T04:10:43.245Z,4.50
2017-12-30T04:13:12.061Z,4.37
2017-12-30T04:15:41.293Z,4.10
2017-12-30T04:18:11.513Z,3.70
2017-12-30T04:20:40.363Z,4.07
2017-12-30T04:23:09.179Z,5.13
2017-12-30T04:25:38.821Z,3.40
2017-12-30T04:28:07.630Z,4.00
2017-12-30T04:30:36.457Z,5.17
2017-12-30T04:33:05.265Z,3.43
2017-12-30T04:35:34.110Z,3.40
2017-12-30T04:38:03.985Z,4.30
2017-12-30T04:40:32.817Z,4.57
2017-12-30T04:43:01.678Z,4.50
2017-12-30T04:45:30.534Z,3.20
2017-12-30T04:47:59.362Z,3.33
2017-12-30T04:50:28.190Z,4.43
2017-12-30T04:52:57.031Z,3.27
2017-12-30T04:55:25.865Z,4.63
2017-12-30T04:57:55.897Z,2.87
2017-12-30T05:00:25.578Z,3.50
2017-12-30T05:02:54.397Z,3.20
2017-12-30T05:05:24.714Z,3.30
2017-12-30T05:07:54.329Z,2.90
2017-12-30T05:10:23.942Z,3.80
2017-12-30T05:12:53.575Z,3.10
2017-12-30T05:15:22.369Z,2.93
2017-12-30T05:17:51.982Z,3.27
2017-12-30T05:20:21.591Z,3.30
2017-12-30T05:22:50.862Z,2.60
2017-12-30T05:25:19.702Z,3.30
2017-12-30T05:27:48.553Z,4.10
2017-12-30T05:30:17.380Z,3.40
2017-12-30T05:32:46.236Z,3.47
2017-12-30T05:35:15.070Z,3.90
2017-12-30T05:37:43.898Z,3.67
2017-12-30T05:40:12.735Z,3.00
2017-12-30T05:42:42.321Z,4.00
2017-12-30T05:45:11.923Z,2.70
2017-12-30T05:47:41.518Z,3.30
2017-12-30T05:50:10.349Z,4.30
2017-12-30T05:52:39.185Z,3.20
2017-12-30T05:55:08.045Z,2.87
2017-12-30T05:57:36.887Z,3.17
2017-12-30T06:00:06.530Z,3.03
2017-12-30T06:02:35.374Z,2.90
2017-12-30T06:05:04.197Z,4.00
2017-12-30T06:07:33.019Z,3.37
2017-12-30T06:10:01.854Z,3.70
2017-12-30T06:12:31.445Z,3.30
2017-12-30T06:15:00.278Z,3.10
2017-12-30T06:17:29.870Z,5.23
2017-12-30T06:19:59.555Z,2.93
2017-12-30T06:22:28.339Z,3.63
2017-12-30T06:24:57.182Z,3.83
2017-12-30T06:27:26.017Z,3.20
2017-12-30T06:29:54.853Z,3.23
2017-12-30T06:32:24.461Z,3.93
2017-12-30T06:34:53.306Z,4.30
2017-12-30T06:37:22.138Z,3.53
2017-12-30T06:39:50.994Z,3.93
2017-12-30T06:42:19.866Z,4.33
2017-12-30T06:44:48.689Z,3.60
2017-12-30T06:47:18.285Z,4.00
2017-12-30T06:49:48.538Z,3.50
2017-12-30T06:52:17.376Z,3.20
2017-12-30T06:54:46.274Z,4.67
2017-12-30T06:57:15.031Z,4.70
2017-12-30T06:59:43.865Z,3.73
2017-12-30T07:02:13.713Z,4.40
2017-12-30T07:04:42.570Z,3.80
2017-12-30T07:07:12.166Z,3.43
2017-12-30T07:09:41.799Z,3.40
2017-12-30T07:12:10.656Z,3.27
2017-12-30T07:14:39.492Z,3.30
2017-12-30T07:17:08.338Z,3.83
2017-12-30T07:19:38.022Z,3.20
2017-12-30T07:22:06.834Z,3.20
2017-12-30T07:24:36.433Z,3.10
2017-12-30T07:27:05.276Z,2.37
2017-12-30T07:29:34.684Z,2.30
2017-12-30T07:32:03.633Z,2.60
2017-12-30T07:34:33.231Z,2.93
2017-12-30T07:37:03.175Z,3.07
2017-12-30T07:39:32.030Z,2.10
2017-12-30T07:42:00.841Z,3.50
2017-12-30T07:44:29.817Z,2.30
2017-12-30T07:47:00.039Z,2.50
2017-12-30T07:49:29.646Z,2.27
2017-12-30T07:51:59.251Z,1.73
2017-12-30T07:54:28.087Z,1.30
2017-12-30T07:56:56.946Z,2.00
2017-12-30T07:59:26.555Z,1.47
2017-12-30T08:01:56.181Z,1.70
2017-12-30T08:04:25.014Z,2.70
2017-12-30T08:06:53.864Z,3.03
2017-12-30T08:09:22.687Z,1.70
2017-12-30T08:11:51.543Z,1.80
2017-12-30T08:14:20.421Z,1.50
2017-12-30T08:16:49.231Z,1.20
2017-12-30T08:19:18.088Z,1.87
2017-12-30T08:21:47.718Z,1.83
2017-12-30T08:24:16.537Z,1.07
2017-12-30T08:26:45.366Z,1.20
2017-12-30T08:29:14.989Z,1.40
2017-12-30T08:31:44.581Z,1.00
2017-12-30T08:34:14.195Z,1.40
2017-12-30T08:36:43.798Z,1.10
2017-12-30T08:39:13.392Z,0.93
2017-12-30T08:41:42.225Z,0.90
2017-12-30T08:44:12.055Z,0.93
2017-12-30T08:46:41.025Z,0.80
2017-12-30T08:49:09.862Z,0.73
2017-12-30T08:51:38.716Z,0.80
2017-12-30T08:54:08.209Z,0.80
2017-12-30T08:56:37.055Z,0.80
2017-12-30T08:59:05.883Z,0.80
2017-12-30T09:01:35.078Z,0.70
2017-12-30T09:04:04.141Z,0.80
2017-12-30T09:06:32.965Z,1.20
2017-12-30T09:09:02.545Z,0.83
2017-12-30T09:11:32.139Z,0.73
2017-12-30T09:14:02.491Z,0.80
2017-12-30T09:16:32.078Z,1.17
2017-12-30T09:19:00.940Z,0.70
2017-12-30T09:21:30.760Z,0.97
2017-12-30T09:24:00.497Z,0.90
2017-12-30T09:26:29.334Z,0.80
2017-12-30T09:28:59.195Z,0.80
2017-12-30T09:31:28.037Z,0.70
2017-12-30T09:33:56.905Z,0.90
2017-12-30T09:36:25.730Z,0.90
2017-12-30T09:38:54.561Z,0.97
2017-12-30T09:41:23.436Z,0.90
2017-12-30T09:43:52.222Z,0.73
2017-12-30T09:46:21.814Z,0.70
2017-12-30T09:48:51.399Z,0.97
2017-12-30T09:51:20.233Z,0.70
2017-12-30T09:53:49.069Z,0.80
2017-12-30T09:56:17.885Z,0.70
2017-12-30T09:58:47.474Z,1.10
2017-12-30T10:11:01.298Z,1.00
2017-12-30T10:13:30.902Z,1.00
2017-12-30T10:16:00.522Z,0.80
2017-12-30T10:18:30.127Z,1.20
2017-12-30T10:20:58.954Z,0.73
2017-12-30T10:23:29.803Z,0.80
2017-12-30T10:25:59.407Z,0.70
2017-12-30T10:28:29.037Z,0.80
2017-12-30T10:30:57.833Z,0.60
2017-12-30T10:33:26.673Z,0.67
2017-12-30T10:35:55.547Z,0.80
2017-12-30T10:38:24.400Z,0.80
2017-12-30T10:40:53.990Z,0.80
2017-12-30T10:43:22.828Z,0.80
2017-12-30T10:45:51.660Z,0.80
2017-12-30T10:48:21.245Z,0.70
2017-12-30T10:50:50.073Z,0.70
2017-12-30T10:53:18.907Z,0.70
2017-12-30T10:55:47.746Z,0.80
2017-12-30T10:58:16.626Z,0.70
2017-12-30T11:00:51.979Z,0.80
2017-12-30T11:03:20.820Z,0.90
2017-12-30T11:05:50.597Z,0.70
2017-12-30T11:08:19.393Z,1.00
2017-12-30T11:10:48.267Z,0.80
2017-12-30T11:13:17.110Z,0.90
2017-12-30T11:15:45.934Z,0.80
2017-12-30T11:18:15.538Z,0.80
2017-12-30T11:20:44.515Z,1.03
2017-12-30T11:23:13.573Z,1.07
2017-12-30T11:25:43.274Z,1.30
2017-12-30T11:28:12.109Z,1.30
2017-12-30T11:30:40.936Z,1.30
2017-12-30T11:33:09.779Z,1.50
2017-12-30T11:35:39.028Z,1.20
2017-12-30T11:38:07.869Z,2.00
2017-12-30T11:40:36.706Z,3.20
2017-12-30T11:43:05.542Z,2.80
2017-12-30T11:45:34.385Z,2.83
2017-12-30T11:48:03.402Z,4.00
2017-12-30T11:50:33.010Z,3.87
2017-12-30T11:53:02.602Z,4.17
2017-12-30T11:55:31.461Z,6.43
2017-12-30T11:58:00.267Z,6.73
2017-12-30T12:00:29.470Z,6.27
2017-12-30T12:02:58.301Z,6.60
2017-12-30T12:05:27.142Z,7.70
2017-12-30T12:07:55.969Z,6.97
2017-12-30T12:10:25.902Z,7.67
2017-12-30T12:12:54.739Z,8.70
2017-12-30T12:15:23.589Z,8.90
2017-12-30T12:17:52.471Z,8.70
2017-12-30T12:20:21.307Z,8.17
2017-12-30T12:22:50.171Z,9.93
2017-12-30T12:25:19.016Z,10.33
2017-12-30T12:27:47.932Z,9.20
2017-12-30T12:30:17.514Z,8.80
2017-12-30T12:32:46.349Z,10.90
2017-12-30T12:35:15.204Z,9.20
2017-12-30T12:37:44.036Z,9.37
2017-12-30T12:40:12.884Z,9.87
2017-12-30T12:42:42.488Z,10.07
2017-12-30T12:45:12.109Z,9.40
2017-12-30T12:47:42.018Z,9.33
2017-12-30T12:50:11.669Z,9.63
2017-12-30T12:52:40.507Z,10.23
2017-12-30T12:55:11.123Z,9.30
2017-12-30T12:57:39.970Z,8.73
2017-12-30T13:00:08.948Z,8.30
2017-12-30T13:02:38.608Z,10.10
2017-12-30T13:05:07.452Z,10.73
2017-12-30T13:07:36.294Z,9.87
2017-12-30T13:10:05.161Z,10.23
2017-12-30T13:12:34.018Z,10.20
2017-12-30T13:15:02.894Z,11.50
2017-12-30T13:17:32.518Z,11.47
2017-12-30T13:20:01.372Z,11.07
2017-12-30T13:22:30.283Z,10.30
2017-12-30T13:25:00.442Z,11.07
2017-12-30T13:27:29.383Z,10.93
2017-12-30T13:29:58.193Z,11.83
2017-12-30T13:32:27.833Z,12.20
2017-12-30T13:34:56.686Z,10.10
2017-12-30T13:37:25.541Z,11.90
2017-12-30T13:39:54.386Z,13.47
2017-12-30T13:42:24.017Z,11.90
2017-12-30T13:44:52.866Z,12.77
2017-12-30T13:47:22.514Z,11.97
2017-12-30T13:49:51.378Z,12.17
2017-12-30T13:52:20.236Z,10.40
2017-12-30T13:54:49.852Z,12.33
2017-12-30T13:57:19.479Z,13.07
2017-12-30T13:59:49.109Z,11.30
2017-12-30T14:02:17.962Z,12.47
2017-12-30T14:04:47.603Z,11.93
2017-12-30T14:07:16.523Z,12.23
2017-12-30T14:09:45.381Z,12.90
2017-12-30T14:12:14.230Z,11.93
2017-12-30T14:14:43.462Z,11.73
2017-12-30T14:17:13.093Z,13.47
2017-12-30T14:19:41.935Z,13.67
2017-12-30T14:22:11.727Z,13.23
2017-12-30T14:24:40.665Z,12.67
2017-12-30T14:27:09.726Z,14.23
2017-12-30T14:29:39.284Z,13.70
2017-12-30T14:32:08.152Z,14.63
2017-12-30T14:34:37.015Z,12.90
2017-12-30T14:37:06.656Z,13.27
2017-12-30T14:39:36.010Z,11.17
2017-12-30T14:42:05.156Z,12.57
2017-12-30T14:44:34.014Z,13.07
2017-12-30T14:47:03.642Z,11.90
2017-12-30T14:49:33.123Z,11.40
2017-12-30T14:52:03.694Z,11.80
2017-12-30T14:54:32.566Z,13.33
2017-12-30T14:57:01.427Z,12.37
2017-12-30T14:59:30.295Z,11.97
2017-12-30T15:01:59.156Z,11.50
2017-12-30T15:04:28.023Z,11.07
2017-12-30T15:06:56.873Z,11.30
2017-12-30T15:09:25.735Z,10.80
2017-12-30T15:11:54.591Z,9.93
2017-12-30T15:14:23.500Z,13.87
2017-12-30T15:16:53.054Z,11.70
2017-12-30T15:19:22.697Z,11.13
2017-12-30T15:21:51.548Z,11.50
2017-12-30T15:24:21.597Z,12.63
2017-12-30T15:26:50.911Z,10.60
2017-12-30T15:29:19.761Z,11.73
2017-12-30T15:31:49.430Z,11.07
2017-12-30T15:34:18.270Z,11.93
2017-12-30T15:36:47.901Z,11.90
2017-12-30T15:39:16.762Z,10.30
2017-12-30T15:41:46.151Z,11.37
2017-12-30T15:44:15.004Z,11.67
2017-12-30T15:46:43.870Z,12.40
2017-12-30T15:49:12.739Z,11.70
2017-12-30T15:51:42.390Z,12.10
2017-12-30T15:54:11.229Z,12.83
2017-12-30T15:56:40.842Z,11.30
2017-12-30T15:59:10.524Z,12.43
2017-12-30T16:01:39.350Z,9.70
2017-12-30T16:04:08.188Z,10.60
2017-12-30T16:06:37.077Z,11.70
2017-12-30T16:09:05.941Z,12.90
2017-12-30T16:11:34.804Z,10.70
2017-12-30T16:14:04.447Z,10.63
2017-12-30T16:16:33.945Z,10.70
2017-12-30T16:19:03.049Z,12.07
2017-12-30T16:21:32.648Z,11.30
2017-12-30T16:24:01.837Z,12.63
2017-12-30T16:26:30.676Z,11.10
2017-12-30T16:29:00.312Z,10.40
2017-12-30T16:31:29.157Z,9.10
2017-12-30T16:33:58.770Z,10.37
2017-12-30T16:36:28.078Z,10.30
2017-12-30T16:38:57.718Z,11.73
2017-12-30T16:41:27.424Z,10.77
2017-12-30T16:43:56.275Z,10.10
2017-12-30T16:46:25.159Z,9.40
2017-12-30T16:48:53.994Z,10.60
2017-12-30T16:51:23.193Z,10.53
2017-12-30T16:53:52.050Z,10.97
2017-12-30T16:56:21.722Z,10.60
2017-12-30T16:58:51.149Z,9.07
2017-12-30T17:01:20.794Z,9.53
2017-12-30T17:03:49.638Z,10.57
2017-12-30T17:06:18.502Z,10.70
2017-12-30T17:08:47.415Z,9.90
2017-12-30T17:11:16.257Z,9.73
2017-12-30T17:13:45.117Z,10.00
2017-12-30T17:16:14.738Z,9.50
2017-12-30T17:18:43.591Z,9.53
2017-12-30T17:21:12.426Z,9.43
2017-12-30T17:23:41.267Z,9.67
2017-12-30T17:26:10.218Z,10.63
2017-12-30T17:28:39.060Z,10.17
2017-12-30T17:31:07.917Z,14.77
2017-12-30T17:33:36.788Z,9.03
2017-12-30T17:36:06.194Z,9.60
2017-12-30T17:38:35.058Z,11.47
2017-12-30T17:41:04.698Z,10.17
2017-12-30T17:43:34.004Z,10.60
2017-12-30T17:46:02.927Z,11.20
2017-12-30T17:48:32.482Z,10.00
2017-12-30T17:51:01.337Z,10.83
2017-12-30T17:53:30.186Z,9.17
2017-12-30T17:55:59.034Z,9.90
2017-12-30T17:58:27.923Z,9.33
2017-12-30T18:00:58.070Z,9.40
2017-12-30T18:03:26.929Z,10.80
2017-12-30T18:05:56.558Z,10.33
2017-12-30T18:08:25.401Z,10.53
2017-12-30T18:10:55.992Z,10.57
2017-12-30T18:13:25.158Z,9.30
2017-12-30T18:15:54.031Z,9.77
2017-12-30T18:18:23.647Z,9.73
2017-12-30T18:20:53.300Z,9.83
2017-12-30T18:23:22.170Z,10.33
2017-12-30T18:25:52.397Z,9.30
2017-12-30T18:28:22.004Z,9.60
2017-12-30T18:30:51.835Z,10.30
2017-12-30T18:33:20.697Z,10.07
2017-12-30T18:35:49.570Z,10.93
2017-12-30T18:38:18.438Z,9.80
2017-12-30T18:40:47.367Z,8.43
2017-12-30T18:43:16.986Z,9.20
2017-12-30T18:45:46.621Z,10.37
2017-12-30T18:48:15.494Z,9.50
2017-12-30T18:50:45.127Z,10.20
2017-12-30T18:53:14.733Z,8.57
2017-12-30T18:55:43.596Z,8.40
2017-12-30T18:58:13.228Z,9.77
2017-12-30T19:00:42.079Z,11.43
2017-12-30T19:03:11.724Z,8.10
2017-12-30T19:05:41.538Z,8.27
2017-12-30T19:08:10.438Z,9.77
2017-12-30T19:10:39.323Z,8.47
2017-12-30T19:13:08.725Z,8.40
2017-12-30T19:15:37.601Z,9.20
2017-12-30T19:18:06.470Z,11.40
2017-12-30T19:20:36.120Z,8.87
2017-12-30T19:23:04.970Z,8.40
2017-12-30T19:25:33.838Z,8.03
2017-12-30T19:28:04.258Z,8.13
2017-12-30T19:30:34.078Z,9.60
2017-12-30T19:33:02.931Z,9.20
2017-12-30T19:35:32.613Z,8.70
2017-12-30T19:38:01.470Z,7.67
2017-12-30T19:40:30.319Z,9.60
2017-12-30T19:42:59.954Z,8.37
2017-12-30T19:45:28.822Z,7.67
2017-12-30T19:47:57.706Z,9.30
2017-12-30T19:50:27.326Z,8.00
2017-12-30T19:52:57.004Z,9.23
2017-12-30T19:55:25.854Z,8.00
2017-12-30T19:57:54.745Z,8.23
2017-12-30T20:00:23.653Z,8.40
2017-12-30T20:02:53.266Z,9.57
2017-12-30T20:05:22.222Z,8.53
2017-12-30T20:07:51.071Z,9.50
2017-12-30T20:10:19.995Z,9.20
2017-12-30T20:12:48.871Z,8.00
2017-12-30T20:15:18.532Z,8.90
2017-12-30T20:17:47.399Z,9.27
2017-12-30T20:20:17.083Z,9.17
2017-12-30T20:22:45.984Z,8.17
2017-12-30T20:25:14.842Z,8.80
2017-12-30T20:27:44.581Z,9.10
2017-12-30T20:30:13.503Z,9.43
2017-12-30T20:32:42.376Z,9.57
2017-12-30T20:35:11.238Z,9.53
2017-12-30T20:37:40.200Z,10.83
2017-12-30T20:40:09.068Z,8.50
2017-12-30T20:42:38.016Z,8.53
2017-12-30T20:45:07.770Z,8.70
2017-12-30T20:47:36.773Z,10.03
2017-12-30T20:50:05.869Z,9.37
2017-12-30T20:52:34.995Z,9.50
2017-12-30T20:55:05.649Z,10.27
2017-12-30T20:57:35.359Z,10.10
2017-12-30T21:00:04.342Z,9.27
2017-12-30T21:02:33.358Z,10.30
2017-12-30T21:05:02.201Z,8.93
2017-12-30T21:07:32.553Z,9.77
2017-12-30T21:10:01.418Z,11.17
2017-12-30T21:12:31.212Z,8.97
2017-12-30T21:15:00.047Z,9.13
2017-12-30T21:17:29.051Z,10.40
2017-12-30T21:19:58.012Z,10.20
2017-12-30T21:22:26.968Z,8.77
2017-12-30T21:24:55.802Z,9.43
2017-12-30T21:27:24.842Z,9.03
2017-12-30T21:29:53.717Z,9.83
2017-12-30T21:32:22.565Z,10.40
2017-12-30T21:34:52.250Z,9.23
2017-12-30T21:37:22.028Z,9.63
2017-12-30T21:39:50.981Z,10.40
2017-12-30T21:42:19.859Z,9.97
2017-12-30T21:44:49.850Z,10.13
2017-12-30T21:47:20.062Z,12.70
2017-12-30T21:49:49.706Z,11.80
2017-12-30T21:52:18.783Z,11.30
2017-12-30T21:54:47.714Z,11.30
2017-12-30T21:57:16.595Z,11.33
2017-12-30T21:59:46.346Z,13.60
2017-12-30T22:02:15.188Z,10.20
2017-12-30T22:04:44.085Z,10.40
2017-12-30T22:07:12.939Z,11.23
2017-12-30T22:09:42.646Z,10.70
2017-12-30T22:12:19.065Z,11.73
2017-12-30T22:14:50.609Z,9.90
2017-12-30T22:17:35.782Z,9.37
2017-12-30T22:20:04.610Z,9.13
2017-12-30T22:22:33.471Z,11.90
2017-12-30T22:25:02.355Z,10.50
2017-12-30T22:27:31.627Z,10.07
2017-12-30T22:30:01.267Z,9.70
2017-12-30T22:32:30.105Z,11.30
2017-12-30T22:34:59.744Z,10.20
2017-12-30T22:37:28.604Z,10.47
2017-12-30T22:39:57.483Z,11.37
2017-12-30T22:42:27.103Z,12.60
2017-12-30T22:44:55.998Z,11.10
2017-12-30T22:47:24.865Z,11.53
2017-12-30T22:49:53.695Z,10.40
2017-12-30T22:52:22.870Z,9.80
2017-12-30T22:54:51.713Z,11.50
2017-12-30T22:57:21.318Z,10.50
2017-12-30T22:59:50.182Z,11.73
2017-12-30T23:02:19.033Z,10.10
2017-12-30T23:04:48.671Z,11.23
2017-12-30T23:07:17.523Z,13.07
2017-12-30T23:09:47.196Z,11.33
2017-12-30T23:12:16.050Z,12.73
2017-12-30T23:14:44.907Z,12.87
2017-12-30T23:17:14.554Z,12.40
2017-12-30T23:19:43.410Z,15.40
2017-12-30T23:22:13.043Z,14.30
2017-12-30T23:24:41.922Z,15.70
2017-12-30T23:27:11.514Z,16.47
2017-12-30T23:29:41.185Z,15.13
2017-12-30T23:32:10.049Z,16.07
2017-12-30T23:34:38.912Z,13.40
2017-12-30T23:37:08.545Z,13.70
2017-12-30T23:39:38.148Z,12.77
2017-12-30T23:42:07.020Z,13.37
2017-12-30T23:44:36.650Z,13.37
2017-12-30T23:47:05.500Z,12.10
2017-12-30T23:49:35.551Z,15.20
2017-12-30T23:52:04.409Z,14.33
2017-12-30T23:54:34.060Z,14.00
2017-12-30T23:57:02.906Z,15.00
2017-12-30T23:59:32.542Z,15.00
